createdAt,value
2018-07-11T00:01:55.765Z,99.90
2018-07-11T00:04:25.270Z,99.90
2018-07-11T00:06:54.578Z,99.90
2018-07-11T00:09:23.933Z,99.90
2018-07-11T00:11:53.246Z,99.90
2018-07-11T00:14:22.613Z,99.90
2018-07-11T00:16:56.991Z,99.90
2018-07-11T00:21:55.083Z,99.90
2018-07-11T00:26:53.163Z,99.90
2018-07-11T00:31:51.310Z,99.90
2018-07-11T00:34:20.752Z,99.90
2018-07-11T00:36:50.238Z,99.90
2018-07-11T00:39:19.738Z,99.90
2018-07-11T00:41:49.239Z,99.90
2018-07-11T00:44:18.697Z,99.90
2018-07-11T00:46:48.196Z,99.90
2018-07-11T00:49:17.638Z,99.90
2018-07-11T00:51:47.093Z,99.90
2018-07-11T00:56:45.447Z,99.90
2018-07-11T00:59:23.376Z,99.90
2018-07-11T01:04:21.631Z,99.90
2018-07-11T01:06:51.359Z,99.90
2018-07-11T01:09:20.746Z,99.90
2018-07-11T01:11:50.257Z,99.90
2018-07-11T01:14:19.763Z,99.90
2018-07-11T01:16:49.232Z,99.90
2018-07-11T01:19:18.797Z,99.90
2018-07-11T01:21:52.670Z,99.90
2018-07-11T01:24:22.002Z,99.90
2018-07-11T01:26:51.314Z,99.90
2018-07-11T01:29:20.744Z,99.90
2018-07-11T01:31:50.079Z,99.90
2018-07-11T01:34:19.371Z,99.90
2018-07-11T01:36:48.767Z,99.90
2018-07-11T01:39:18.132Z,99.90
2018-07-11T01:41:47.489Z,99.90
2018-07-11T01:44:16.789Z,99.90
2018-07-11T01:46:50.570Z,99.90
2018-07-11T01:49:20.113Z,99.90
2018-07-11T01:52:00.289Z,99.90
2018-07-11T01:54:29.874Z,99.90
2018-07-11T01:56:59.337Z,99.90
2018-07-11T01:59:31.221Z,99.90
2018-07-11T02:02:00.702Z,99.90
2018-07-11T02:04:30.391Z,99.90
2018-07-11T02:06:59.979Z,99.90
2018-07-11T02:09:29.853Z,99.90
2018-07-11T02:11:59.323Z,99.90
2018-07-11T02:14:29.092Z,99.90
2018-07-11T02:16:58.884Z,99.90
2018-07-11T02:19:28.368Z,99.90
2018-07-11T02:21:58.958Z,99.90
2018-07-11T02:26:57.102Z,99.90
2018-07-11T02:29:27.334Z,99.90
2018-07-11T02:31:56.831Z,99.90
2018-07-11T02:34:31.358Z,99.90
2018-07-11T02:37:00.607Z,99.90
2018-07-11T02:39:30.008Z,99.90
2018-07-11T02:41:59.835Z,99.90
2018-07-11T02:44:29.115Z,99.90
2018-07-11T02:49:32.586Z,99.90
2018-07-11T02:52:02.036Z,99.90
2018-07-11T02:54:31.418Z,99.90
2018-07-11T02:57:00.921Z,99.90
2018-07-11T03:01:59.234Z,99.90
2018-07-11T03:04:28.856Z,99.90
2018-07-11T03:06:58.263Z,99.90
2018-07-11T03:09:27.640Z,99.90
2018-07-11T03:11:57.081Z,99.90
2018-07-11T03:14:26.788Z,99.90
2018-07-11T03:16:56.173Z,99.90
2018-07-11T03:19:25.538Z,99.90
2018-07-11T03:24:24.458Z,99.90
2018-07-11T03:26:54.129Z,99.90
2018-07-11T03:29:23.453Z,99.90
2018-07-11T03:31:52.784Z,99.90
2018-07-11T03:34:22.056Z,99.90
2018-07-11T03:36:51.524Z,99.90
2018-07-11T03:39:20.858Z,99.90
2018-07-11T03:41:50.219Z,99.90
2018-07-11T03:44:19.565Z,99.90
2018-07-11T03:46:48.929Z,99.90
2018-07-11T03:49:18.376Z,99.90
2018-07-11T03:51:47.734Z,99.90
2018-07-11T03:54:17.076Z,99.90
2018-07-11T03:56:46.411Z,99.90
2018-07-11T03:59:15.815Z,99.90
2018-07-11T04:01:45.190Z,99.90
2018-07-11T04:04:14.612Z,99.90
2018-07-11T04:06:44.040Z,99.90
2018-07-11T04:09:13.530Z,99.90
2018-07-11T04:11:42.838Z,99.90
2018-07-11T04:14:12.203Z,99.90
2018-07-11T04:16:41.576Z,99.90
2018-07-11T04:19:10.962Z,99.90
2018-07-11T04:21:40.228Z,99.90
2018-07-11T04:24:09.603Z,99.90
2018-07-11T04:26:39.036Z,99.90
2018-07-11T04:29:08.501Z,99.90
2018-07-11T04:31:38.016Z,99.90
2018-07-11T04:34:07.912Z,99.90
2018-07-11T04:36:37.361Z,99.90
2018-07-11T04:39:06.773Z,99.90
2018-07-11T04:41:36.243Z,99.90
2018-07-11T04:44:05.728Z,99.90
2018-07-11T04:46:35.326Z,99.90
2018-07-11T04:49:04.754Z,99.90
2018-07-11T04:51:34.669Z,99.90
2018-07-11T04:54:04.134Z,99.90
2018-07-11T04:56:33.598Z,99.90
2018-07-11T04:59:03.003Z,99.90
2018-07-11T05:01:32.322Z,99.90
2018-07-11T05:04:01.791Z,99.90
2018-07-11T05:06:31.170Z,99.90
2018-07-11T05:09:00.421Z,99.90
2018-07-11T05:11:29.748Z,99.90
2018-07-11T05:13:59.068Z,99.90
2018-07-11T05:16:28.315Z,99.90
2018-07-11T05:18:57.673Z,99.90
2018-07-11T05:21:26.948Z,99.90
2018-07-11T05:23:56.327Z,99.90
2018-07-11T05:26:25.650Z,99.90
2018-07-11T05:28:55.077Z,99.90
2018-07-11T05:31:24.369Z,99.90
2018-07-11T05:33:53.771Z,99.90
2018-07-11T05:36:23.123Z,99.90
2018-07-11T05:38:52.420Z,99.90
2018-07-11T05:41:22.500Z,99.90
2018-07-11T05:43:51.935Z,99.90
2018-07-11T05:46:21.222Z,99.90
2018-07-11T05:53:48.130Z,99.90
2018-07-11T05:56:17.471Z,99.90
2018-07-11T05:58:46.785Z,99.90
2018-07-11T06:03:44.856Z,99.90
2018-07-11T06:06:14.205Z,99.90
2018-07-11T06:08:43.577Z,99.90
2018-07-11T06:11:18.497Z,99.90
2018-07-11T06:13:47.794Z,99.90
2018-07-11T06:16:17.235Z,99.90
2018-07-11T06:18:46.681Z,99.90
2018-07-11T06:21:16.025Z,99.90
2018-07-11T06:26:14.156Z,99.90
2018-07-11T06:28:43.775Z,99.90
2018-07-11T06:31:13.124Z,99.90
2018-07-11T06:36:11.326Z,99.90
2018-07-11T06:38:40.783Z,99.90
2018-07-11T06:41:10.101Z,99.90
2018-07-11T06:43:39.577Z,99.90
2018-07-11T06:46:08.960Z,99.90
2018-07-11T06:48:38.353Z,99.90
2018-07-11T06:51:07.798Z,99.90
2018-07-11T06:53:37.219Z,99.90
2018-07-11T07:01:04.091Z,99.90
2018-07-11T07:03:33.450Z,99.90
2018-07-11T07:06:02.724Z,99.90
2018-07-11T07:08:32.033Z,99.90
2018-07-11T07:11:01.360Z,99.90
2018-07-11T07:13:30.705Z,99.90
2018-07-11T07:16:00.048Z,99.90
2018-07-11T07:18:29.416Z,99.90
2018-07-11T07:20:58.757Z,99.90
2018-07-11T07:23:28.113Z,99.90
2018-07-11T07:25:57.464Z,99.90
2018-07-11T07:28:26.790Z,99.90
2018-07-11T07:30:56.137Z,99.90
2018-07-11T07:33:25.462Z,99.90
2018-07-11T07:35:54.864Z,99.90
2018-07-11T07:38:24.323Z,99.90
2018-07-11T07:40:53.628Z,99.90
2018-07-11T07:45:52.102Z,99.90
2018-07-11T07:48:21.593Z,99.90
2018-07-11T07:50:51.040Z,99.90
2018-07-11T07:55:49.480Z,99.90
2018-07-11T07:58:19.096Z,99.90
2018-07-11T08:00:48.664Z,99.90
2018-07-11T08:03:18.050Z,99.90
2018-07-11T08:05:47.398Z,99.90
2018-07-11T08:08:17.033Z,99.90
2018-07-11T08:10:46.448Z,99.90
2018-07-11T08:15:44.622Z,99.90
2018-07-11T08:18:14.184Z,99.90
2018-07-11T08:20:43.588Z,99.90
2018-07-11T08:23:26.521Z,99.90
2018-07-11T08:26:07.314Z,99.90
2018-07-11T08:30:51.997Z,99.90
2018-07-11T08:35:33.281Z,99.90
2018-07-11T08:38:18.201Z,99.50
2018-07-11T08:41:02.126Z,99.10
2018-07-11T08:46:20.591Z,99.00
2018-07-11T08:51:08.783Z,98.80
2018-07-11T08:54:00.421Z,97.50
2018-07-11T08:59:56.439Z,96.90
2018-07-11T09:05:45.174Z,97.80
2018-07-11T09:08:41.941Z,98.90
2018-07-11T09:11:39.447Z,99.70
2018-07-11T09:16:22.189Z,99.20
2018-07-11T09:21:09.482Z,99.30
2018-07-11T09:23:52.666Z,98.60
2018-07-11T09:26:22.018Z,98.20
2018-07-11T09:28:51.334Z,97.70
2018-07-11T09:31:20.739Z,97.30
2018-07-11T09:33:50.123Z,97.00
2018-07-11T09:36:19.532Z,96.60
2018-07-11T09:38:48.916Z,96.30
2018-07-11T09:41:18.520Z,96.10
2018-07-11T09:43:47.940Z,96.10
2018-07-11T09:46:17.439Z,95.90
2018-07-11T09:48:47.288Z,95.80
2018-07-11T09:51:16.845Z,95.70
2018-07-11T09:53:46.154Z,95.30
2018-07-11T09:56:15.697Z,95.00
2018-07-11T10:01:19.274Z,93.90
2018-07-11T10:03:48.795Z,93.20
2018-07-11T10:06:18.235Z,93.00
2018-07-11T10:08:48.170Z,93.30
2018-07-11T10:11:17.523Z,93.70
2018-07-11T10:13:47.107Z,93.80
2018-07-11T10:16:16.904Z,93.60
2018-07-11T10:18:53.671Z,93.40
2018-07-11T10:21:23.165Z,93.70
2018-07-11T10:23:52.933Z,93.80
2018-07-11T10:26:22.576Z,93.90
2018-07-11T10:28:52.273Z,93.60
2018-07-11T10:31:21.847Z,93.90
2018-07-11T10:33:51.242Z,93.80
2018-07-11T10:36:23.722Z,94.10
2018-07-11T10:38:53.203Z,93.70
2018-07-11T10:41:22.750Z,93.50
2018-07-11T10:43:52.171Z,93.30
2018-07-11T10:46:21.660Z,92.80
2018-07-11T10:48:51.069Z,92.00
2018-07-11T10:51:20.640Z,91.60
2018-07-11T10:53:50.180Z,92.10
2018-07-11T10:56:19.792Z,92.20
2018-07-11T11:01:19.478Z,92.90
2018-07-11T11:03:48.880Z,92.70
2018-07-11T11:06:18.301Z,92.30
2018-07-11T11:08:47.748Z,92.00
2018-07-11T11:11:17.549Z,91.50
2018-07-11T11:13:47.045Z,90.90
2018-07-11T11:16:16.483Z,90.00
2018-07-11T11:18:45.948Z,89.90
2018-07-11T11:21:15.498Z,89.10
2018-07-11T11:23:44.855Z,87.80
2018-07-11T11:26:14.307Z,87.20
2018-07-11T11:28:43.674Z,85.90
2018-07-11T11:31:13.075Z,85.20
2018-07-11T11:33:42.389Z,85.00
2018-07-11T11:36:11.808Z,84.10
2018-07-11T11:38:41.163Z,84.30
2018-07-11T11:41:10.539Z,84.20
2018-07-11T11:43:40.063Z,82.70
2018-07-11T11:46:09.386Z,83.10
2018-07-11T11:48:38.713Z,82.50
2018-07-11T11:51:08.105Z,83.60
2018-07-11T11:53:37.435Z,83.70
2018-07-11T11:56:06.817Z,85.20
2018-07-11T11:58:36.291Z,86.80
2018-07-11T12:01:05.630Z,86.00
2018-07-11T12:03:35.093Z,86.50
2018-07-11T12:06:04.479Z,86.00
2018-07-11T12:08:33.776Z,86.60
2018-07-11T12:11:03.202Z,85.90
2018-07-11T12:13:32.642Z,85.90
2018-07-11T12:16:02.475Z,86.10
2018-07-11T12:18:31.847Z,86.00
2018-07-11T12:21:01.278Z,86.50
2018-07-11T12:23:30.765Z,86.80
2018-07-11T12:26:09.389Z,87.60
2018-07-11T12:28:38.931Z,87.80
2018-07-11T12:31:08.291Z,87.90
2018-07-11T12:33:37.723Z,88.30
2018-07-11T12:36:07.039Z,89.10
2018-07-11T12:38:36.504Z,88.90
2018-07-11T12:41:05.925Z,89.40
2018-07-11T12:43:35.365Z,90.30
2018-07-11T12:46:04.797Z,90.60
2018-07-11T12:48:39.424Z,90.70
2018-07-11T12:51:08.991Z,90.80
2018-07-11T12:53:38.464Z,90.80
2018-07-11T12:56:07.900Z,90.60
2018-07-11T12:58:37.427Z,90.50
2018-07-11T13:01:08.070Z,90.50
2018-07-11T13:03:38.213Z,90.30
2018-07-11T13:06:09.045Z,90.40
2018-07-11T13:08:38.749Z,90.50
2018-07-11T13:11:08.402Z,90.90
2018-07-11T13:13:37.918Z,91.10
2018-07-11T13:16:07.407Z,91.00
2018-07-11T13:18:36.878Z,91.00
2018-07-11T13:21:06.180Z,91.50
2018-07-11T13:23:35.529Z,91.60
2018-07-11T13:26:04.993Z,91.70
2018-07-11T13:28:34.298Z,91.90
2018-07-11T13:31:05.224Z,92.10
2018-07-11T13:33:34.633Z,92.00
2018-07-11T13:36:04.037Z,91.80
2018-07-11T13:38:33.617Z,91.70
2018-07-11T13:41:03.070Z,91.50
2018-07-11T13:43:32.459Z,91.20
2018-07-11T13:46:01.914Z,90.90
2018-07-11T13:48:31.294Z,91.10
2018-07-11T13:51:00.651Z,91.00
2018-07-11T13:53:30.084Z,90.80
2018-07-11T13:55:59.610Z,91.00
2018-07-11T13:58:29.193Z,91.30
2018-07-11T14:00:58.697Z,91.30
2018-07-11T14:03:28.832Z,91.50
2018-07-11T14:05:58.287Z,91.50
2018-07-11T14:08:27.883Z,92.00
2018-07-11T14:10:57.347Z,92.10
2018-07-11T14:13:26.827Z,92.10
2018-07-11T14:15:56.330Z,92.10
2018-07-11T14:18:26.065Z,92.30
2018-07-11T14:20:55.749Z,92.90
2018-07-11T14:23:37.839Z,93.20
2018-07-11T14:26:08.200Z,93.10
2018-07-11T14:28:47.807Z,93.30
2018-07-11T14:31:27.954Z,93.70
2018-07-11T14:33:58.064Z,93.80
2018-07-11T14:36:27.554Z,93.90
2018-07-11T14:38:56.984Z,93.80
2018-07-11T14:41:26.537Z,94.00
2018-07-11T14:43:56.953Z,93.90
2018-07-11T14:46:27.785Z,94.10
2018-07-11T14:48:57.438Z,94.30
2018-07-11T14:51:27.269Z,94.40
2018-07-11T14:53:57.631Z,94.60
2018-07-11T14:56:27.063Z,94.60
2018-07-11T14:58:57.662Z,94.40
2018-07-11T15:01:27.090Z,94.40
2018-07-11T15:03:56.446Z,94.20
2018-07-11T15:06:25.934Z,94.30
2018-07-11T15:08:56.317Z,94.40
2018-07-11T15:11:25.964Z,94.90
2018-07-11T15:13:55.435Z,95.10
2018-07-11T15:16:25.414Z,95.40
2018-07-11T15:18:54.839Z,95.80
2018-07-11T15:21:24.270Z,96.30
2018-07-11T15:23:53.805Z,95.30
2018-07-11T15:26:23.337Z,94.20
2018-07-11T15:28:52.996Z,93.70
2018-07-11T15:31:22.490Z,92.70
2018-07-11T15:33:53.478Z,91.90
2018-07-11T15:36:22.913Z,91.30
2018-07-11T15:38:52.400Z,90.30
2018-07-11T15:41:21.920Z,89.20
2018-07-11T15:43:51.466Z,84.30
2018-07-11T15:46:21.549Z,79.80
2018-07-11T15:48:51.200Z,75.80
2018-07-11T15:51:20.771Z,75.10
2018-07-11T15:56:19.140Z,74.70
2018-07-11T15:58:55.410Z,74.30
2018-07-11T16:01:24.999Z,66.10
2018-07-11T16:03:54.399Z,59.00
2018-07-11T16:06:23.829Z,58.00
2018-07-11T16:08:53.435Z,55.80
2018-07-11T16:11:22.815Z,55.80
2018-07-11T16:13:52.145Z,54.70
2018-07-11T16:18:51.711Z,60.70
2018-07-11T16:21:21.239Z,60.70
2018-07-11T16:23:51.784Z,62.80
2018-07-11T16:26:21.518Z,64.10
2018-07-11T16:31:20.316Z,60.10
2018-07-11T16:33:50.149Z,57.90
2018-07-11T16:36:19.807Z,56.70
2018-07-11T16:38:49.210Z,56.60
2018-07-11T16:41:19.716Z,56.20
2018-07-11T16:43:50.372Z,54.90
2018-07-11T16:46:19.920Z,54.40
2018-07-11T16:51:19.306Z,55.40
2018-07-11T16:53:50.333Z,55.50
2018-07-11T16:56:20.012Z,52.30
2018-07-11T16:58:54.168Z,52.90
2018-07-11T17:01:30.113Z,54.80
2018-07-11T17:03:59.634Z,55.80
2018-07-11T17:06:29.155Z,57.00
2018-07-11T17:14:04.695Z,62.00
2018-07-11T17:16:40.063Z,61.20
2018-07-11T17:19:17.123Z,60.70
2018-07-11T17:21:50.212Z,60.10
2018-07-11T17:24:22.186Z,58.70
2018-07-11T17:26:55.579Z,59.10
2018-07-11T17:29:30.463Z,59.40
2018-07-11T17:32:05.344Z,56.80
2018-07-11T17:34:37.533Z,58.40
2018-07-11T17:39:48.891Z,56.00
2018-07-11T17:42:30.049Z,56.10
2018-07-11T17:45:10.473Z,55.70
2018-07-11T17:48:07.061Z,56.50
2018-07-11T17:50:39.147Z,57.80
2018-07-11T17:53:13.736Z,62.00
2018-07-11T17:56:05.561Z,64.20
2018-07-11T17:58:45.801Z,65.60
2018-07-11T18:01:15.355Z,63.80
2018-07-11T18:04:07.075Z,59.70
2018-07-11T18:06:41.465Z,68.10
2018-07-11T18:09:13.981Z,59.10
2018-07-11T18:11:56.667Z,66.00
2018-07-11T18:15:02.652Z,59.10
2018-07-11T18:19:45.289Z,63.00
2018-07-11T18:22:38.635Z,59.70
2018-07-11T18:25:34.043Z,60.60
2018-07-11T18:28:16.258Z,57.40
2018-07-11T18:30:55.105Z,57.50
2018-07-11T18:33:37.888Z,57.90
2018-07-11T18:38:23.287Z,61.60
2018-07-11T18:41:10.633Z,60.70
2018-07-11T18:47:57.032Z,64.80
2018-07-11T18:51:34.688Z,62.60
2018-07-11T18:54:10.714Z,63.50
2018-07-11T18:56:49.346Z,67.30
2018-07-11T19:02:29.847Z,68.40
2018-07-11T19:05:11.809Z,66.80
2018-07-11T19:07:51.497Z,63.60
2018-07-11T19:10:35.219Z,68.40
2018-07-11T19:13:14.411Z,64.20
2018-07-11T19:15:46.057Z,65.30
2018-07-11T19:18:22.185Z,66.90
2018-07-11T19:21:07.758Z,69.40
2018-07-11T19:23:49.596Z,71.20
2018-07-11T19:26:55.648Z,68.20
2018-07-11T19:30:34.338Z,65.80
2018-07-11T19:35:52.559Z,65.90
2018-07-11T19:38:43.031Z,67.30
2018-07-11T19:41:21.894Z,67.10
2018-07-11T19:46:04.779Z,61.70
2018-07-11T19:50:53.654Z,63.10
2018-07-11T19:53:33.889Z,59.30
2018-07-11T19:56:25.722Z,63.20
2018-07-11T19:58:55.146Z,65.20
2018-07-11T20:01:24.515Z,67.10
2018-07-11T20:03:53.940Z,70.50
2018-07-11T20:06:23.328Z,71.70
2018-07-11T20:08:53.279Z,69.80
2018-07-11T20:11:23.087Z,69.80
2018-07-11T20:13:53.938Z,70.80
2018-07-11T20:16:24.037Z,69.90
2018-07-11T20:18:53.612Z,71.00
2018-07-11T20:21:23.783Z,70.30
2018-07-11T20:23:53.107Z,69.70
2018-07-11T20:26:22.419Z,73.60
2018-07-11T20:31:20.824Z,71.60
2018-07-11T20:33:50.087Z,71.30
2018-07-11T20:36:19.489Z,72.50
2018-07-11T20:38:48.799Z,71.90
2018-07-11T20:41:18.118Z,76.30
2018-07-11T20:46:16.790Z,74.40
2018-07-11T20:48:46.265Z,74.60
2018-07-11T20:51:15.707Z,78.70
2018-07-11T20:53:45.092Z,75.10
2018-07-11T20:56:14.631Z,74.20
2018-07-11T21:01:28.754Z,75.50
2018-07-11T21:04:40.184Z,75.20
2018-07-11T21:08:21.130Z,75.00
2018-07-11T21:10:57.736Z,73.60
2018-07-11T21:15:20.885Z,74.50
2018-07-11T21:19:59.639Z,73.30
2018-07-11T21:22:29.086Z,74.00
2018-07-11T21:24:58.392Z,75.10
2018-07-11T21:27:27.786Z,73.90
2018-07-11T21:29:57.084Z,74.10
2018-07-11T21:32:26.365Z,75.70
2018-07-11T21:34:55.710Z,75.40
2018-07-11T21:37:25.300Z,73.90
2018-07-11T21:39:54.822Z,74.60
2018-07-11T21:42:24.254Z,75.90
2018-07-11T21:44:53.843Z,75.50
2018-07-11T21:47:23.764Z,76.00
2018-07-11T21:49:53.122Z,75.90
2018-07-11T21:52:22.447Z,77.90
2018-07-11T21:54:51.749Z,76.90
2018-07-11T21:57:21.138Z,76.40
2018-07-11T21:59:50.858Z,76.30
2018-07-11T22:02:20.302Z,77.40
2018-07-11T22:07:19.632Z,78.60
2018-07-11T22:09:48.980Z,78.50
2018-07-11T22:12:18.621Z,78.70
2018-07-11T22:14:47.989Z,79.10
2018-07-11T22:18:30.347Z,79.10
2018-07-11T22:20:58.068Z,78.10
2018-07-11T22:23:25.840Z,78.10
2018-07-11T22:25:53.591Z,78.40
2018-07-11T22:28:21.606Z,77.50
2018-07-11T22:30:49.347Z,79.50
2018-07-11T22:33:17.139Z,79.80
2018-07-11T22:35:44.880Z,80.10
2018-07-11T22:38:13.331Z,80.50
2018-07-11T22:40:41.521Z,80.20
2018-07-11T22:43:09.263Z,80.20
2018-07-11T22:45:37.009Z,80.10
2018-07-11T22:48:04.746Z,80.90
2018-07-11T22:50:32.465Z,81.80
2018-07-11T22:53:00.227Z,81.70
2018-07-11T22:55:28.003Z,82.00
2018-07-11T22:57:55.763Z,82.30
2018-07-11T23:00:23.536Z,82.40
2018-07-11T23:02:51.320Z,82.70
2018-07-11T23:05:19.069Z,84.30
2018-07-11T23:07:46.825Z,83.00
2018-07-11T23:10:14.642Z,83.80
2018-07-11T23:12:42.365Z,83.50
2018-07-11T23:15:10.105Z,83.60
2018-07-11T23:17:37.884Z,84.60
2018-07-11T23:20:05.636Z,84.40
2018-07-11T23:22:33.378Z,85.90
2018-07-11T23:25:01.152Z,85.50
2018-07-11T23:27:28.906Z,84.80
2018-07-11T23:29:56.680Z,85.10
2018-07-11T23:32:24.472Z,85.10
2018-07-11T23:34:52.219Z,86.00
2018-07-11T23:37:20.012Z,85.70
2018-07-11T23:42:15.756Z,85.20
2018-07-11T23:49:39.540Z,85.90
2018-07-11T23:52:07.332Z,86.50
2018-07-11T23:54:35.081Z,85.30
2018-07-11T23:59:30.868Z,85.70
